createdAt,value
2019-04-10T00:00:44.306Z,10.10
2019-04-10T00:03:25.810Z,10.10
2019-04-10T00:05:46.246Z,10.10
2019-04-10T00:08:15.526Z,10.10
2019-04-10T00:10:45.818Z,10.10
2019-04-10T00:13:15.277Z,10.10
2019-04-10T00:15:45.266Z,10.10
2019-04-10T00:18:15.826Z,10.10
2019-04-10T00:20:45.164Z,10.10
2019-04-10T00:23:15.221Z,10.10
2019-04-10T00:25:45.506Z,10.10
2019-04-10T00:28:15.320Z,10.10
2019-04-10T00:30:45.124Z,10.00
2019-04-10T00:33:14.472Z,10.00
2019-04-10T00:35:43.850Z,10.00
2019-04-10T00:38:13.674Z,9.90
2019-04-10T00:40:43.737Z,9.80
2019-04-10T00:43:14.840Z,9.80
2019-04-10T00:45:44.465Z,9.80
2019-04-10T00:48:13.724Z,9.80
2019-04-10T00:50:44.475Z,9.70
2019-04-10T00:53:14.202Z,9.70
2019-04-10T00:55:44.043Z,9.70
2019-04-10T00:58:14.187Z,9.50
2019-04-10T01:00:43.556Z,9.50
2019-04-10T01:03:15.711Z,9.40
2019-04-10T01:05:44.963Z,9.40
2019-04-10T01:08:14.146Z,9.30
2019-04-10T01:10:44.654Z,9.20
2019-04-10T01:13:13.818Z,9.20
2019-04-10T01:15:43.434Z,9.10
2019-04-10T01:18:13.107Z,9.10
2019-04-10T01:20:42.355Z,9.00
2019-04-10T01:23:11.967Z,9.00
2019-04-10T01:25:41.301Z,9.00
2019-04-10T01:28:10.846Z,8.90
2019-04-10T01:30:40.319Z,8.90
2019-04-10T01:33:09.564Z,8.90
2019-04-10T01:35:38.812Z,8.80
2019-04-10T01:38:09.187Z,8.80
2019-04-10T01:40:39.357Z,8.70
2019-04-10T01:43:13.288Z,8.70
2019-04-10T01:45:39.939Z,8.70
2019-04-10T01:48:10.041Z,8.60
2019-04-10T01:50:39.265Z,8.60
2019-04-10T01:53:09.159Z,8.50
2019-04-10T01:55:38.846Z,8.50
2019-04-10T01:58:13.452Z,8.50
2019-04-10T02:00:48.225Z,8.50
2019-04-10T02:03:18.087Z,8.50
2019-04-10T02:05:49.110Z,8.50
2019-04-10T02:08:19.036Z,8.50
2019-04-10T02:10:49.936Z,8.50
2019-04-10T02:13:19.772Z,8.40
2019-04-10T02:15:49.010Z,8.40
2019-04-10T02:18:19.102Z,8.30
2019-04-10T02:20:49.418Z,8.20
2019-04-10T02:23:19.367Z,8.20
2019-04-10T02:25:49.459Z,8.20
2019-04-10T02:28:19.050Z,8.10
2019-04-10T02:30:49.991Z,8.10
2019-04-10T02:33:19.763Z,8.00
2019-04-10T02:35:49.293Z,7.90
2019-04-10T02:38:37.331Z,7.90
2019-04-10T02:40:50.121Z,7.80
2019-04-10T02:43:21.062Z,7.80
2019-04-10T02:45:51.269Z,7.80
2019-04-10T02:48:20.527Z,7.70
2019-04-10T02:50:51.223Z,7.80
2019-04-10T02:53:21.625Z,7.80
2019-04-10T02:55:53.421Z,7.80
2019-04-10T02:58:24.681Z,7.70
2019-04-10T03:00:56.195Z,7.70
2019-04-10T03:03:25.614Z,7.70
2019-04-10T03:05:56.463Z,7.70
2019-04-10T03:08:41.336Z,7.60
2019-04-10T03:11:03.584Z,7.60
2019-04-10T03:13:29.338Z,7.60
2019-04-10T03:16:00.047Z,7.60
2019-04-10T03:18:30.547Z,7.50
2019-04-10T03:20:59.740Z,7.50
2019-04-10T03:23:29.457Z,7.50
2019-04-10T03:25:59.457Z,7.50
2019-04-10T03:28:29.967Z,7.40
2019-04-10T03:31:01.113Z,7.40
2019-04-10T03:33:52.251Z,7.40
2019-04-10T03:36:21.164Z,7.40
2019-04-10T03:38:59.214Z,7.40
2019-04-10T03:41:22.016Z,7.30
2019-04-10T03:43:52.225Z,7.30
2019-04-10T03:46:21.855Z,7.30
2019-04-10T03:48:51.526Z,7.30
2019-04-10T03:51:22.756Z,7.20
2019-04-10T03:53:52.100Z,7.20
2019-04-10T03:56:21.628Z,7.20
2019-04-10T03:58:51.730Z,7.20
2019-04-10T04:01:20.981Z,7.20
2019-04-10T04:03:51.120Z,7.20
2019-04-10T04:06:21.700Z,7.20
2019-04-10T04:09:03.534Z,7.10
2019-04-10T04:11:23.868Z,7.10
2019-04-10T04:13:53.886Z,7.10
2019-04-10T04:16:23.101Z,7.10
2019-04-10T04:18:53.377Z,7.10
2019-04-10T04:21:23.757Z,7.10
2019-04-10T04:23:53.344Z,7.10
2019-04-10T04:26:23.182Z,7.00
2019-04-10T04:28:53.744Z,7.00
2019-04-10T04:31:23.404Z,7.00
2019-04-10T04:33:55.932Z,6.90
2019-04-10T04:36:25.157Z,7.00
2019-04-10T04:38:54.407Z,7.00
2019-04-10T04:41:23.849Z,7.00
2019-04-10T04:43:53.327Z,6.90
2019-04-10T04:46:22.651Z,6.90
2019-04-10T04:48:52.283Z,6.90
2019-04-10T04:51:22.005Z,6.90
2019-04-10T04:53:52.363Z,6.80
2019-04-10T04:56:22.046Z,6.80
2019-04-10T04:58:51.800Z,6.80
2019-04-10T05:01:21.496Z,6.70
2019-04-10T05:03:50.686Z,6.70
2019-04-10T05:06:20.145Z,6.70
2019-04-10T05:08:50.599Z,6.70
2019-04-10T05:11:20.592Z,6.70
2019-04-10T05:13:50.996Z,6.70
2019-04-10T05:16:20.649Z,6.70
2019-04-10T05:18:50.288Z,6.70
2019-04-10T05:21:20.998Z,6.70
2019-04-10T05:23:51.258Z,6.70
2019-04-10T05:26:21.414Z,6.70
2019-04-10T05:28:51.321Z,6.70
2019-04-10T05:31:21.410Z,6.70
2019-04-10T05:33:51.348Z,6.80
2019-04-10T05:36:21.617Z,6.80
2019-04-10T05:38:52.490Z,6.80
2019-04-10T05:41:23.258Z,6.80
2019-04-10T05:43:53.859Z,6.80
2019-04-10T05:46:25.008Z,6.80
2019-04-10T05:48:54.355Z,6.80
2019-04-10T05:51:23.586Z,6.80
2019-04-10T05:53:55.286Z,6.80
2019-04-10T05:56:24.333Z,6.80
2019-04-10T05:58:54.378Z,6.90
2019-04-10T06:01:32.347Z,6.90
2019-04-10T06:03:56.775Z,6.90
2019-04-10T06:06:26.625Z,7.00
2019-04-10T06:08:56.203Z,7.00
2019-04-10T06:11:25.814Z,7.10
2019-04-10T06:13:55.073Z,7.20
2019-04-10T06:16:24.243Z,7.30
2019-04-10T06:18:57.631Z,7.50
2019-04-10T06:21:27.290Z,7.60
2019-04-10T06:23:58.327Z,7.60
2019-04-10T06:26:28.045Z,7.80
2019-04-10T06:28:58.969Z,7.80
2019-04-10T06:31:28.862Z,7.90
2019-04-10T06:33:58.943Z,8.00
2019-04-10T06:36:29.146Z,8.10
2019-04-10T06:39:00.296Z,8.10
2019-04-10T06:41:30.522Z,8.20
2019-04-10T06:43:59.869Z,8.20
2019-04-10T06:46:30.680Z,8.20
2019-04-10T06:49:01.017Z,8.30
2019-04-10T06:51:31.348Z,8.40
2019-04-10T06:54:06.311Z,8.60
2019-04-10T06:56:31.695Z,8.60
2019-04-10T06:59:01.049Z,8.60
2019-04-10T07:01:40.412Z,8.80
2019-04-10T07:04:05.469Z,8.90
2019-04-10T07:06:47.519Z,9.00
2019-04-10T07:09:07.585Z,9.10
2019-04-10T07:11:37.219Z,9.10
2019-04-10T07:14:10.331Z,9.20
2019-04-10T07:16:38.251Z,9.10
2019-04-10T07:19:10.383Z,9.20
2019-04-10T07:21:38.765Z,9.30
2019-04-10T07:24:10.985Z,9.40
2019-04-10T07:26:43.273Z,9.30
2019-04-10T07:29:11.059Z,9.40
2019-04-10T07:31:40.806Z,9.50
2019-04-10T07:34:11.002Z,9.50
2019-04-10T07:36:42.373Z,9.50
2019-04-10T07:39:11.669Z,9.50
2019-04-10T07:41:41.797Z,9.60
2019-04-10T07:44:12.058Z,9.50
2019-04-10T07:46:42.368Z,9.40
2019-04-10T07:49:11.735Z,9.30
2019-04-10T07:51:42.492Z,9.40
2019-04-10T07:54:17.943Z,9.40
2019-04-10T07:56:43.847Z,9.50
2019-04-10T07:59:13.473Z,9.70
2019-04-10T08:01:43.728Z,9.80
2019-04-10T08:04:13.081Z,10.00
2019-04-10T08:06:42.470Z,10.10
2019-04-10T08:09:12.568Z,10.30
2019-04-10T08:11:42.853Z,10.50
2019-04-10T08:14:12.726Z,10.50
2019-04-10T08:16:42.027Z,10.90
2019-04-10T08:19:12.433Z,11.30
2019-04-10T08:21:42.368Z,11.40
2019-04-10T08:24:13.315Z,11.40
2019-04-10T08:26:43.193Z,11.40
2019-04-10T08:29:12.734Z,11.60
2019-04-10T08:31:41.918Z,11.70
2019-04-10T08:34:11.382Z,12.10
2019-04-10T08:36:40.618Z,12.30
2019-04-10T08:39:10.965Z,12.40
2019-04-10T08:41:40.333Z,12.30
2019-04-10T08:44:10.770Z,11.80
2019-04-10T08:46:41.947Z,11.50
2019-04-10T08:49:12.175Z,11.70
2019-04-10T08:51:42.009Z,11.80
2019-04-10T08:54:12.054Z,12.30
2019-04-10T08:56:42.792Z,12.80
2019-04-10T08:59:12.235Z,13.20
2019-04-10T09:01:41.901Z,13.30
2019-04-10T09:04:11.096Z,13.40
2019-04-10T09:06:40.515Z,13.40
2019-04-10T09:09:10.117Z,13.80
2019-04-10T09:11:39.657Z,14.20
2019-04-10T09:14:10.650Z,14.60
2019-04-10T09:16:40.160Z,14.70
2019-04-10T09:19:09.738Z,14.70
2019-04-10T09:21:39.077Z,14.70
2019-04-10T09:24:10.026Z,14.60
2019-04-10T09:26:40.302Z,14.10
2019-04-10T09:29:10.131Z,13.90
2019-04-10T09:31:40.025Z,13.50
2019-04-10T09:34:09.719Z,13.50
2019-04-10T09:36:39.629Z,13.40
2019-04-10T09:39:09.961Z,13.60
2019-04-10T09:41:39.897Z,13.60
2019-04-10T09:44:10.189Z,13.70
2019-04-10T09:46:40.824Z,13.50
2019-04-10T09:49:10.249Z,13.40
2019-04-10T09:51:40.463Z,13.20
2019-04-10T09:54:09.947Z,13.20
2019-04-10T09:56:39.971Z,13.10
2019-04-10T09:59:09.776Z,13.40
2019-04-10T10:01:42.264Z,13.70
2019-04-10T10:04:13.277Z,13.60
2019-04-10T10:06:43.256Z,13.80
2019-04-10T10:09:13.286Z,14.00
2019-04-10T10:11:42.806Z,14.30
2019-04-10T10:14:12.561Z,14.40
2019-04-10T10:16:42.761Z,14.70
2019-04-10T10:19:12.483Z,14.50
2019-04-10T10:21:42.810Z,14.60
2019-04-10T10:24:12.347Z,14.60
2019-04-10T10:26:44.206Z,14.50
2019-04-10T10:29:13.359Z,14.60
2019-04-10T10:31:43.004Z,14.90
2019-04-10T10:34:12.384Z,15.30
2019-04-10T10:36:45.891Z,15.60
2019-04-10T10:39:19.388Z,15.80
2019-04-10T10:41:49.504Z,16.10
2019-04-10T10:44:18.745Z,16.30
2019-04-10T10:46:49.497Z,16.30
2019-04-10T10:49:20.148Z,16.30
2019-04-10T10:51:51.027Z,15.90
2019-04-10T10:54:21.106Z,16.00
2019-04-10T10:56:50.880Z,15.70
2019-04-10T10:59:21.818Z,15.70
2019-04-10T11:01:52.109Z,16.00
2019-04-10T11:04:21.772Z,15.80
2019-04-10T11:06:57.766Z,15.70
2019-04-10T11:09:22.310Z,15.30
2019-04-10T11:11:51.586Z,15.50
2019-04-10T11:14:21.486Z,15.40
2019-04-10T11:16:51.630Z,15.50
2019-04-10T11:19:21.670Z,15.60
2019-04-10T11:21:51.160Z,15.80
2019-04-10T11:24:20.386Z,16.00
2019-04-10T11:26:50.386Z,16.20
2019-04-10T11:29:21.959Z,16.60
2019-04-10T11:31:53.627Z,16.70
2019-04-10T11:34:24.217Z,17.00
2019-04-10T11:37:12.954Z,17.30
2019-04-10T11:39:28.255Z,17.30
2019-04-10T11:41:57.642Z,17.50
2019-04-10T11:44:27.614Z,17.30
2019-04-10T11:46:58.767Z,17.30
2019-04-10T11:49:29.484Z,17.00
2019-04-10T11:52:01.438Z,17.00
2019-04-10T11:54:34.372Z,17.10
2019-04-10T11:57:04.288Z,17.10
2019-04-10T11:59:35.917Z,16.90
2019-04-10T12:02:06.487Z,16.90
2019-04-10T12:07:10.874Z,17.50
2019-04-10T12:12:09.109Z,18.10
2019-04-10T12:14:39.608Z,18.40
2019-04-10T12:17:09.653Z,18.60
2019-04-10T12:19:40.459Z,18.90
2019-04-10T12:22:11.608Z,19.00
2019-04-10T12:24:40.996Z,19.30
2019-04-10T12:27:10.187Z,19.50
2019-04-10T12:29:40.532Z,20.00
2019-04-10T12:32:09.732Z,20.20
2019-04-10T12:34:38.912Z,21.00
2019-04-10T12:37:09.076Z,21.50
2019-04-10T12:39:39.130Z,22.00
2019-04-10T12:42:08.493Z,21.80
2019-04-10T12:44:39.471Z,22.30
2019-04-10T12:47:09.955Z,22.60
2019-04-10T12:49:39.430Z,23.00
2019-04-10T12:52:10.085Z,23.00
2019-04-10T12:54:40.498Z,23.00
2019-04-10T12:57:10.598Z,23.70
2019-04-10T12:59:39.889Z,23.60
2019-04-10T13:02:10.874Z,23.00
2019-04-10T13:04:40.735Z,23.20
2019-04-10T13:07:09.936Z,23.30
2019-04-10T13:09:40.130Z,23.30
2019-04-10T13:12:09.552Z,23.70
2019-04-10T13:14:39.896Z,23.90
2019-04-10T13:17:09.651Z,23.80
2019-04-10T13:19:39.228Z,24.30
2019-04-10T13:22:09.551Z,24.40
2019-04-10T13:24:38.944Z,23.90
2019-04-10T13:27:08.409Z,23.80
2019-04-10T13:29:38.490Z,23.70
2019-04-10T13:32:08.178Z,23.70
2019-04-10T13:34:37.477Z,23.50
2019-04-10T13:37:06.756Z,23.30
2019-04-10T13:39:36.967Z,23.70
2019-04-10T13:42:07.252Z,23.70
2019-04-10T13:44:36.630Z,23.50
2019-04-10T13:47:07.100Z,23.50
2019-04-10T13:49:36.375Z,23.20
2019-04-10T13:52:05.840Z,22.70
2019-04-10T13:54:35.086Z,22.90
2019-04-10T13:57:05.647Z,22.60
2019-04-10T13:59:44.942Z,22.30
2019-04-10T14:02:21.510Z,21.90
2019-04-10T14:04:51.368Z,21.50
2019-04-10T14:07:22.115Z,21.10
2019-04-10T14:09:52.412Z,21.20
2019-04-10T14:12:22.825Z,21.30
2019-04-10T14:14:53.058Z,21.10
2019-04-10T14:17:23.676Z,20.90
2019-04-10T14:19:54.036Z,20.60
2019-04-10T14:22:23.923Z,20.60
2019-04-10T14:24:53.626Z,20.40
2019-04-10T14:27:24.930Z,20.20
2019-04-10T14:29:54.567Z,20.30
2019-04-10T14:32:31.388Z,20.70
2019-04-10T14:35:01.049Z,20.80
2019-04-10T14:37:31.669Z,20.60
2019-04-10T14:40:02.152Z,20.40
2019-04-10T14:42:31.459Z,20.30
2019-04-10T14:45:01.411Z,20.20
2019-04-10T14:47:31.812Z,20.00
2019-04-10T14:50:01.982Z,19.70
2019-04-10T14:52:31.377Z,19.50
2019-04-10T14:55:02.095Z,19.10
2019-04-10T14:57:32.835Z,18.90
2019-04-10T15:00:02.466Z,18.50
2019-04-10T15:02:32.782Z,18.70
2019-04-10T15:05:02.056Z,18.60
2019-04-10T15:07:31.824Z,18.50
2019-04-10T15:10:01.786Z,18.10
2019-04-10T15:12:32.197Z,17.90
2019-04-10T15:15:01.773Z,18.10
2019-04-10T15:17:32.802Z,18.00
2019-04-10T15:20:02.182Z,18.30
2019-04-10T15:22:31.770Z,18.10
2019-04-10T15:25:01.486Z,18.10
2019-04-10T15:27:31.974Z,18.10
2019-04-10T15:30:02.096Z,17.90
2019-04-10T15:32:31.794Z,17.90
2019-04-10T15:35:02.219Z,17.80
2019-04-10T15:37:31.993Z,17.80
2019-04-10T15:40:12.446Z,17.50
2019-04-10T15:42:34.108Z,17.30
2019-04-10T15:45:05.083Z,17.20
2019-04-10T15:47:35.290Z,17.00
2019-04-10T15:50:06.916Z,16.70
2019-04-10T15:52:37.480Z,16.60
2019-04-10T15:55:07.885Z,16.40
2019-04-10T15:57:47.682Z,16.30
2019-04-10T16:00:09.123Z,16.10
2019-04-10T16:02:38.508Z,15.80
2019-04-10T16:05:09.393Z,15.80
2019-04-10T16:07:38.757Z,15.80
2019-04-10T16:10:26.660Z,15.60
2019-04-10T16:12:57.579Z,15.50
2019-04-10T16:15:27.853Z,15.50
2019-04-10T16:18:11.379Z,15.30
2019-04-10T16:20:41.078Z,15.30
2019-04-10T16:23:28.662Z,15.10
2019-04-10T16:25:58.633Z,15.00
2019-04-10T16:28:29.052Z,14.70
2019-04-10T16:30:59.260Z,14.40
2019-04-10T16:33:29.430Z,14.30
2019-04-10T16:35:59.099Z,14.30
2019-04-10T16:38:30.979Z,14.30
2019-04-10T16:41:00.497Z,14.30
2019-04-10T16:43:30.606Z,14.30
2019-04-10T16:45:59.973Z,14.30
2019-04-10T16:48:29.550Z,14.10
2019-04-10T16:50:59.676Z,13.80
2019-04-10T16:53:29.945Z,13.60
2019-04-10T16:55:59.670Z,13.50
2019-04-10T16:58:28.987Z,13.40
2019-04-10T17:00:58.963Z,13.30
2019-04-10T17:03:29.651Z,13.20
2019-04-10T17:05:59.043Z,13.00
2019-04-10T17:08:28.559Z,12.90
2019-04-10T17:10:58.802Z,12.90
2019-04-10T17:13:28.788Z,12.70
2019-04-10T17:15:58.055Z,12.70
2019-04-10T17:18:27.492Z,12.60
2019-04-10T17:20:57.270Z,12.40
2019-04-10T17:23:27.051Z,12.30
2019-04-10T17:25:56.557Z,12.10
2019-04-10T17:28:26.625Z,12.10
2019-04-10T17:30:56.102Z,12.00
2019-04-10T17:33:26.709Z,11.90
2019-04-10T17:35:56.355Z,11.80
2019-04-10T17:38:26.631Z,11.80
2019-04-10T17:40:58.773Z,11.70
2019-04-10T17:43:28.666Z,11.60
2019-04-10T17:45:59.069Z,11.60
2019-04-10T17:48:30.377Z,11.50
2019-04-10T17:51:00.069Z,11.40
2019-04-10T17:53:29.579Z,11.30
2019-04-10T17:56:00.097Z,11.30
2019-04-10T17:58:29.651Z,11.20
2019-04-10T18:01:01.788Z,11.10
2019-04-10T18:03:42.848Z,11.00
2019-04-10T18:06:02.065Z,10.90
2019-04-10T18:08:32.657Z,10.90
2019-04-10T18:11:02.015Z,10.80
2019-04-10T18:13:31.185Z,10.80
2019-04-10T18:16:00.501Z,10.70
2019-04-10T18:18:29.744Z,10.60
2019-04-10T18:21:00.150Z,10.60
2019-04-10T18:23:29.775Z,10.50
2019-04-10T18:26:00.459Z,10.40
2019-04-10T18:28:32.243Z,10.30
2019-04-10T18:31:00.993Z,10.20
2019-04-10T18:33:30.880Z,10.10
2019-04-10T18:36:00.345Z,10.10
2019-04-10T18:38:30.047Z,10.00
2019-04-10T18:41:03.688Z,10.00
2019-04-10T18:43:30.444Z,9.90
2019-04-10T18:46:08.716Z,9.90
2019-04-10T18:48:30.657Z,9.80
2019-04-10T18:51:01.477Z,9.80
2019-04-10T18:53:30.962Z,9.70
2019-04-10T18:56:00.782Z,9.60
2019-04-10T18:58:38.075Z,9.60
2019-04-10T19:01:25.167Z,9.60
2019-04-10T19:04:14.043Z,9.60
2019-04-10T19:06:53.216Z,9.50
2019-04-10T19:09:28.069Z,9.40
2019-04-10T19:11:57.130Z,9.30
2019-04-10T19:14:26.352Z,9.30
2019-04-10T19:16:55.503Z,9.20
2019-04-10T19:19:25.981Z,9.20
2019-04-10T19:21:56.009Z,9.20
2019-04-10T19:24:28.043Z,9.10
2019-04-10T19:26:57.904Z,9.10
2019-04-10T19:29:27.633Z,9.00
2019-04-10T19:32:01.538Z,9.00
2019-04-10T19:34:31.682Z,8.90
2019-04-10T19:37:00.990Z,8.90
2019-04-10T19:39:31.969Z,8.80
2019-04-10T19:42:03.354Z,8.80
2019-04-10T19:44:32.600Z,8.70
2019-04-10T19:47:02.128Z,8.70
2019-04-10T19:49:31.434Z,8.70
2019-04-10T19:52:00.628Z,8.70
2019-04-10T19:54:30.402Z,8.70
2019-04-10T19:57:01.341Z,8.60
2019-04-10T19:59:31.587Z,8.60
2019-04-10T20:02:01.083Z,8.50
2019-04-10T20:04:30.927Z,8.50
2019-04-10T20:07:00.592Z,8.40
2019-04-10T20:09:30.552Z,8.40
2019-04-10T20:12:00.263Z,8.30
2019-04-10T20:14:30.590Z,8.40
2019-04-10T20:16:59.911Z,8.40
2019-04-10T20:19:29.363Z,8.40
2019-04-10T20:21:59.051Z,8.30
2019-04-10T20:24:29.170Z,8.30
2019-04-10T20:26:59.417Z,8.30
2019-04-10T20:29:29.053Z,8.30
2019-04-10T20:31:59.545Z,8.30
2019-04-10T20:34:29.567Z,8.20
2019-04-10T20:37:02.713Z,8.10
2019-04-10T20:39:31.630Z,8.10
2019-04-10T20:42:02.482Z,8.10
2019-04-10T20:44:32.623Z,8.10
2019-04-10T20:47:02.862Z,8.20
2019-04-10T20:49:32.704Z,8.10
2019-04-10T20:52:02.234Z,8.10
2019-04-10T20:54:32.870Z,8.10
2019-04-10T20:57:03.362Z,8.10
2019-04-10T20:59:33.453Z,8.10
2019-04-10T21:02:04.195Z,8.10
2019-04-10T21:04:33.833Z,8.00
2019-04-10T21:07:03.073Z,8.00
2019-04-10T21:09:32.317Z,8.00
2019-04-10T21:12:08.020Z,7.90
2019-04-10T21:14:33.683Z,7.90
2019-04-10T21:17:04.483Z,7.90
2019-04-10T21:19:33.973Z,7.80
2019-04-10T21:22:03.807Z,7.80
2019-04-10T21:24:33.642Z,7.80
2019-04-10T21:27:03.580Z,7.70
2019-04-10T21:29:54.831Z,7.70
2019-04-10T21:32:43.494Z,7.70
2019-04-10T21:35:15.890Z,7.80
2019-04-10T21:37:45.246Z,7.80
2019-04-10T21:40:14.886Z,7.70
2019-04-10T21:42:44.114Z,7.70
2019-04-10T21:45:13.850Z,7.70
2019-04-10T21:47:44.013Z,7.60
2019-04-10T21:50:15.066Z,7.50
2019-04-10T21:52:45.462Z,7.50
2019-04-10T21:55:15.119Z,7.50
2019-04-10T21:57:44.795Z,7.50
2019-04-10T22:00:17.118Z,7.50
2019-04-10T22:02:46.606Z,7.40
2019-04-10T22:05:16.725Z,7.40
2019-04-10T22:08:07.822Z,7.30
2019-04-10T22:10:44.062Z,7.30
2019-04-10T22:13:13.544Z,7.20
2019-04-10T22:15:45.164Z,7.20
2019-04-10T22:18:14.864Z,7.20
2019-04-10T22:20:44.628Z,7.20
2019-04-10T22:23:13.872Z,7.20
2019-04-10T22:25:43.847Z,7.10
2019-04-10T22:28:14.829Z,7.10
2019-04-10T22:30:44.156Z,7.10
2019-04-10T22:33:13.960Z,7.00
2019-04-10T22:35:44.298Z,7.00
2019-04-10T22:38:15.174Z,6.90
2019-04-10T22:40:44.526Z,6.90
2019-04-10T22:43:13.855Z,6.90
2019-04-10T22:45:44.376Z,6.90
2019-04-10T22:48:14.693Z,6.80
2019-04-10T22:50:45.036Z,6.80
2019-04-10T22:53:15.182Z,6.70
2019-04-10T22:55:44.504Z,6.70
2019-04-10T22:58:14.859Z,6.60
2019-04-10T23:00:44.366Z,6.70
2019-04-10T23:03:14.004Z,6.60
2019-04-10T23:05:43.160Z,6.60
2019-04-10T23:08:13.233Z,6.60
2019-04-10T23:10:43.486Z,6.60
2019-04-10T23:13:13.974Z,6.50
2019-04-10T23:15:43.978Z,6.50
2019-04-10T23:18:15.114Z,6.40
2019-04-10T23:20:44.350Z,6.40
2019-04-10T23:23:14.507Z,6.40
2019-04-10T23:25:44.725Z,6.40
2019-04-10T23:28:14.045Z,6.40
2019-04-10T23:30:43.957Z,6.30
2019-04-10T23:33:13.178Z,6.30
2019-04-10T23:35:43.370Z,6.30
2019-04-10T23:38:12.762Z,6.20
2019-04-10T23:40:42.998Z,6.20
2019-04-10T23:43:15.429Z,6.20
2019-04-10T23:45:44.006Z,6.10
2019-04-10T23:48:13.476Z,6.10
2019-04-10T23:50:42.972Z,6.10
2019-04-10T23:53:12.116Z,6.10
2019-04-10T23:55:41.952Z,6.10
2019-04-10T23:58:11.483Z,6.10
